createdAt,value
2017-03-25T00:00:11.717Z,78.35
2017-03-25T00:00:52.094Z,78.54
2017-03-25T00:01:32.540Z,78.45
2017-03-25T00:02:13.046Z,79.11
2017-03-25T00:02:53.455Z,79.02
2017-03-25T00:03:33.876Z,79.11
2017-03-25T00:04:14.307Z,78.92
2017-03-25T00:04:54.770Z,79.02
2017-03-25T00:05:35.150Z,79.02
2017-03-25T00:06:15.557Z,79.02
2017-03-25T00:06:56.000Z,79.02
2017-03-25T00:07:36.404Z,78.35
2017-03-25T00:08:16.784Z,78.26
2017-03-25T00:08:57.221Z,78.26
2017-03-25T00:09:37.632Z,78.26
2017-03-25T00:10:18.068Z,78.31
2017-03-25T00:10:58.491Z,78.26
2017-03-25T00:11:38.925Z,78.5
2017-03-25T00:12:19.302Z,78.22
2017-03-25T00:12:59.723Z,78.41
2017-03-25T00:13:40.168Z,79.07
2017-03-25T00:14:20.601Z,78.98
2017-03-25T00:15:01.040Z,78.79
2017-03-25T00:15:41.437Z,79.26
2017-03-25T00:16:21.846Z,78.88
2017-03-25T00:17:02.294Z,79.07
2017-03-25T00:17:42.736Z,78.79
2017-03-25T00:18:23.112Z,79.45
2017-03-25T00:19:03.537Z,79.36
2017-03-25T00:19:43.935Z,79.17
2017-03-25T00:20:24.416Z,79.55
2017-03-25T00:21:04.786Z,78.88
2017-03-25T00:21:45.168Z,79.45
2017-03-25T00:22:25.615Z,79.17
2017-03-25T00:23:06.065Z,79.36
2017-03-25T00:23:46.400Z,78.79
2017-03-25T00:24:26.831Z,79.26
2017-03-25T00:25:07.325Z,79.07
2017-03-25T00:25:47.766Z,79.17
2017-03-25T00:26:28.152Z,79.07
2017-03-25T00:27:08.509Z,79.17
2017-03-25T00:27:48.899Z,79.07
2017-03-25T00:28:29.437Z,79.26
2017-03-25T00:29:09.839Z,79.45
2017-03-25T00:29:50.340Z,78.98
2017-03-25T00:30:30.692Z,78.88
2017-03-25T00:31:11.151Z,79.07
2017-03-25T00:31:51.570Z,79.26
2017-03-25T00:32:31.948Z,79.17
2017-03-25T00:33:12.361Z,78.88
2017-03-25T00:33:52.735Z,78.88
2017-03-25T00:34:33.313Z,78.98
2017-03-25T00:35:13.727Z,79.07
2017-03-25T00:35:54.140Z,78.98
2017-03-25T00:36:34.533Z,79.26
2017-03-25T00:37:15.004Z,79.17
2017-03-25T00:37:55.455Z,78.79
2017-03-25T00:38:35.837Z,78.88
2017-03-25T00:39:16.316Z,79.17
2017-03-25T00:39:56.729Z,78.79
2017-03-25T00:40:38.982Z,78.69
2017-03-25T00:41:19.438Z,78.88
2017-03-25T00:41:59.895Z,79.45
2017-03-25T00:42:40.292Z,78.98
2017-03-25T00:43:20.684Z,79.07
2017-03-25T00:44:01.132Z,79.36
2017-03-25T00:44:41.617Z,79.17
2017-03-25T00:45:21.984Z,79.26
2017-03-25T00:46:02.410Z,79.26
2017-03-25T00:46:42.842Z,79.26
2017-03-25T00:47:23.211Z,79.26
2017-03-25T00:48:03.629Z,78.88
2017-03-25T00:48:44.103Z,79.07
2017-03-25T00:49:24.511Z,79.26
2017-03-25T00:50:04.991Z,79.17
2017-03-25T00:50:45.382Z,79.17
2017-03-25T00:51:26.704Z,79.17
2017-03-25T00:52:07.206Z,79.36
2017-03-25T00:52:47.676Z,79.13
2017-03-25T00:53:28.081Z,79.22
2017-03-25T00:54:09.441Z,80.11
2017-03-25T00:54:51.466Z,79.26
2017-03-25T00:55:31.851Z,79.64
2017-03-25T00:56:13.951Z,79.45
2017-03-25T00:56:54.395Z,79.13
2017-03-25T00:57:34.818Z,79.22
2017-03-25T00:58:15.272Z,79.26
2017-03-25T00:58:55.711Z,79.26
2017-03-25T00:59:36.129Z,79.26
2017-03-25T01:00:16.530Z,79.22
2017-03-25T01:00:56.954Z,79.17
2017-03-25T01:01:37.399Z,79.07
2017-03-25T01:02:17.867Z,79.17
2017-03-25T01:02:58.283Z,79.26
2017-03-25T01:03:38.739Z,79.5
2017-03-25T01:04:19.242Z,79.17
2017-03-25T01:04:59.667Z,79.13
2017-03-25T01:05:40.085Z,79.98
2017-03-25T01:06:20.541Z,79.17
2017-03-25T01:07:00.926Z,80.07
2017-03-25T01:07:41.330Z,79.69
2017-03-25T01:08:21.708Z,79.98
2017-03-25T01:09:02.131Z,79.98
2017-03-25T01:11:24.662Z,79.6
2017-03-25T01:12:12.958Z,79.6
2017-03-25T01:13:01.391Z,80.07
2017-03-25T01:13:49.888Z,80.17
2017-03-25T01:14:38.813Z,80.17
2017-03-25T01:15:26.857Z,80.26
2017-03-25T01:16:13.838Z,80.17
2017-03-25T01:17:02.159Z,80.26
2017-03-25T01:17:50.423Z,80.45
2017-03-25T01:18:39.017Z,80.07
2017-03-25T01:19:28.924Z,80.45
2017-03-25T01:20:17.886Z,80.45
2017-03-25T01:20:59.653Z,80.36
2017-03-25T01:21:40.059Z,80.26
2017-03-25T01:22:20.453Z,80.07
2017-03-25T01:23:02.405Z,79.98
2017-03-25T01:23:44.017Z,80.17
2017-03-25T01:24:25.038Z,80.07
2017-03-25T01:25:05.252Z,80.17
2017-03-25T01:25:45.682Z,80.45
2017-03-25T01:26:26.041Z,80.26
2017-03-25T01:27:06.489Z,80.74
2017-03-25T01:27:47.561Z,80.83
2017-03-25T01:28:27.367Z,80.83
2017-03-25T01:29:07.775Z,80.64
2017-03-25T01:29:48.234Z,80.55
2017-03-25T01:30:28.637Z,80.36
2017-03-25T01:31:09.895Z,80.45
2017-03-25T01:31:50.298Z,80.45
2017-03-25T01:32:31.497Z,80.83
2017-03-25T01:33:11.926Z,80.83
2017-03-25T01:33:52.303Z,80.64
2017-03-25T01:34:32.751Z,80.93
2017-03-25T01:35:13.160Z,80.83
2017-03-25T01:35:53.526Z,80.83
2017-03-25T01:36:34.386Z,81.12
2017-03-25T01:37:14.861Z,81.12
2017-03-25T01:37:55.223Z,81.02
2017-03-25T01:38:35.634Z,81.12
2017-03-25T01:39:16.080Z,81.49
2017-03-25T01:39:57.422Z,81.3
2017-03-25T01:40:37.786Z,81.3
2017-03-25T01:41:18.814Z,81.3
2017-03-25T01:41:59.213Z,81.12
2017-03-25T01:42:39.637Z,81.49
2017-03-25T01:43:20.220Z,81.02
2017-03-25T01:44:00.637Z,81.02
2017-03-25T01:44:41.000Z,81.12
2017-03-25T01:45:21.455Z,81.12
2017-03-25T01:46:04.608Z,81.12
2017-03-25T01:46:45.063Z,81.12
2017-03-25T01:47:25.418Z,81.02
2017-03-25T01:48:05.801Z,81.02
2017-03-25T01:48:46.212Z,80.83
2017-03-25T01:49:26.581Z,80.83
2017-03-25T01:50:06.990Z,81.12
2017-03-25T01:50:47.790Z,81.02
2017-03-25T01:51:28.213Z,80.83
2017-03-25T01:52:08.605Z,81.21
2017-03-25T01:52:49.096Z,81.02
2017-03-25T01:53:29.453Z,81.02
2017-03-25T01:54:12.910Z,80.93
2017-03-25T01:54:53.334Z,81.02
2017-03-25T01:55:33.771Z,81.02
2017-03-25T01:56:14.165Z,81.12
2017-03-25T01:56:54.590Z,81.02
2017-03-25T01:57:34.986Z,81.49
2017-03-25T01:58:15.378Z,81.49
2017-03-25T01:58:55.828Z,81.3
2017-03-25T01:59:36.153Z,81.4
2017-03-25T02:00:17.128Z,81.3
2017-03-25T02:00:57.606Z,81.4
2017-03-25T02:01:38.825Z,81.02
2017-03-25T02:02:19.267Z,81.4
2017-03-25T02:03:00.152Z,81.77
2017-03-25T02:03:41.981Z,81.49
2017-03-25T02:04:22.075Z,81.68
2017-03-25T02:05:02.516Z,81.3
2017-03-25T02:05:42.986Z,81.68
2017-03-25T02:06:25.684Z,81.77
2017-03-25T02:07:06.085Z,81.49
2017-03-25T02:07:47.348Z,81.96
2017-03-25T02:08:27.778Z,81.96
2017-03-25T02:09:08.166Z,81.77
2017-03-25T02:09:48.526Z,81.68
2017-03-25T02:10:28.940Z,81.96
2017-03-25T02:11:09.331Z,81.77
2017-03-25T02:11:49.909Z,81.77
2017-03-25T02:12:30.258Z,81.77
2017-03-25T02:13:10.678Z,81.87
2017-03-25T02:13:51.079Z,81.87
2017-03-25T02:14:31.474Z,81.77
2017-03-25T02:15:11.944Z,81.77
2017-03-25T02:15:52.325Z,81.68
2017-03-25T02:16:32.774Z,81.96
2017-03-25T02:17:13.230Z,81.77
2017-03-25T02:17:53.619Z,82.15
2017-03-25T02:18:34.266Z,81.96
2017-03-25T02:19:14.653Z,81.96
2017-03-25T02:19:55.094Z,81.96
2017-03-25T02:20:35.531Z,82.06
2017-03-25T02:21:15.895Z,81.68
2017-03-25T02:21:56.280Z,81.68
2017-03-25T02:22:36.711Z,81.96
2017-03-25T02:23:17.120Z,81.77
2017-03-25T02:23:57.519Z,81.68
2017-03-25T02:24:38.077Z,81.68
2017-03-25T02:25:18.440Z,81.59
2017-03-25T02:25:58.869Z,81.96
2017-03-25T02:26:39.332Z,81.77
2017-03-25T02:27:19.723Z,81.96
2017-03-25T02:28:00.119Z,81.49
2017-03-25T02:28:40.477Z,81.68
2017-03-25T02:29:20.928Z,81.77
2017-03-25T02:30:01.297Z,81.96
2017-03-25T02:30:41.748Z,81.77
2017-03-25T02:31:22.132Z,81.59
2017-03-25T02:32:02.502Z,81.68
2017-03-25T02:32:42.984Z,81.77
2017-03-25T02:33:24.441Z,81.96
2017-03-25T02:34:04.855Z,82.15
2017-03-25T02:34:45.319Z,81.77
2017-03-25T02:35:25.654Z,82.25
2017-03-25T02:36:06.869Z,81.96
2017-03-25T02:36:47.260Z,82.06
2017-03-25T02:37:27.635Z,81.96
2017-03-25T02:38:09.283Z,82.15
2017-03-25T02:38:50.492Z,82.06
2017-03-25T02:39:30.825Z,82.15
2017-03-25T02:40:11.246Z,81.96
2017-03-25T02:40:51.642Z,81.87
2017-03-25T02:41:32.939Z,81.96
2017-03-25T02:42:13.303Z,81.96
2017-03-25T02:42:53.687Z,82.06
2017-03-25T02:43:34.110Z,81.87
2017-03-25T02:44:15.237Z,82.15
2017-03-25T02:44:55.705Z,81.87
2017-03-25T02:45:36.086Z,81.96
2017-03-25T02:46:16.501Z,81.96
2017-03-25T02:46:56.920Z,81.77
2017-03-25T02:47:38.148Z,81.68
2017-03-25T02:48:19.508Z,82.63
2017-03-25T02:48:59.883Z,82.34
2017-03-25T02:49:44.167Z,82.63
2017-03-25T02:50:23.948Z,82.68
2017-03-25T02:51:04.320Z,82.63
2017-03-25T02:51:44.811Z,82.25
2017-03-25T02:52:25.183Z,82.53
2017-03-25T02:53:05.624Z,82.68
2017-03-25T02:53:46.039Z,82.5
2017-03-25T02:54:26.424Z,82.5
2017-03-25T02:55:06.904Z,82.31
2017-03-25T02:55:47.337Z,82.31
2017-03-25T02:56:28.528Z,82.68
2017-03-25T02:57:08.951Z,82.59
2017-03-25T02:57:50.026Z,82.59
2017-03-25T02:58:30.426Z,82.68
2017-03-25T02:59:10.813Z,83.06
2017-03-25T02:59:51.410Z,83.25
2017-03-25T03:00:32.790Z,83.25
2017-03-25T03:01:13.220Z,83.25
2017-03-25T03:01:53.578Z,82.68
2017-03-25T03:02:34.335Z,82.87
2017-03-25T03:03:16.718Z,82.5
2017-03-25T03:03:57.862Z,83.15
2017-03-25T03:04:39.671Z,83.15
2017-03-25T03:05:20.086Z,83.06
2017-03-25T03:06:00.557Z,83.25
2017-03-25T03:06:41.330Z,83.06
2017-03-25T03:07:21.706Z,83.25
2017-03-25T03:08:02.155Z,83.06
2017-03-25T03:08:42.545Z,83.06
2017-03-25T03:09:22.991Z,83.06
2017-03-25T03:10:03.355Z,83.06
2017-03-25T03:10:43.798Z,83.25
2017-03-25T03:11:24.177Z,83.15
2017-03-25T03:12:05.370Z,83.06
2017-03-25T03:12:46.720Z,82.87
2017-03-25T03:13:27.179Z,82.87
2017-03-25T03:14:08.640Z,82.87
2017-03-25T03:14:49.891Z,82.68
2017-03-25T03:15:30.630Z,82.68
2017-03-25T03:16:11.089Z,82.59
2017-03-25T03:16:52.343Z,82.59
2017-03-25T03:17:32.739Z,82.68
2017-03-25T03:18:13.218Z,82.97
2017-03-25T03:18:54.329Z,82.5
2017-03-25T03:19:34.760Z,82.97
2017-03-25T03:20:15.107Z,82.78
2017-03-25T03:20:55.524Z,82.68
2017-03-25T03:21:35.943Z,82.78
2017-03-25T03:22:16.473Z,83.06
2017-03-25T03:22:56.848Z,82.68
2017-03-25T03:23:38.264Z,82.78
2017-03-25T03:24:19.506Z,82.78
2017-03-25T03:24:59.917Z,82.87
2017-03-25T03:25:40.297Z,82.5
2017-03-25T03:26:21.450Z,83.06
2017-03-25T03:27:01.888Z,83.15
2017-03-25T03:27:42.282Z,83.06
2017-03-25T03:28:23.197Z,82.68
2017-03-25T03:29:04.245Z,82.97
2017-03-25T03:29:44.631Z,83.53
2017-03-25T03:30:26.074Z,82.97
2017-03-25T03:31:05.478Z,83.06
2017-03-25T03:31:46.721Z,83.06
2017-03-25T03:32:27.134Z,83.06
2017-03-25T03:33:07.545Z,83.15
2017-03-25T03:33:47.946Z,82.87
2017-03-25T03:34:28.366Z,82.97
2017-03-25T03:35:08.728Z,83.53
2017-03-25T03:35:49.123Z,83.82
2017-03-25T03:36:29.540Z,83.91
2017-03-25T03:37:09.961Z,83.91
2017-03-25T03:37:51.127Z,83.34
2017-03-25T03:38:31.675Z,83.72
2017-03-25T03:39:12.075Z,82.97
2017-03-25T03:39:52.479Z,83.15
2017-03-25T03:40:33.285Z,83.15
2017-03-25T03:41:16.171Z,83.06
2017-03-25T03:41:56.862Z,82.97
2017-03-25T03:42:37.890Z,83.15
2017-03-25T03:43:18.332Z,83.15
2017-03-25T03:43:58.721Z,83.72
2017-03-25T03:44:39.118Z,82.87
2017-03-25T03:45:19.541Z,83.72
2017-03-25T03:45:59.941Z,83.53
2017-03-25T03:46:40.343Z,83.63
2017-03-25T03:47:20.737Z,83.72
2017-03-25T03:48:01.200Z,83.53
2017-03-25T03:48:41.657Z,83.63
2017-03-25T03:49:22.058Z,83.44
2017-03-25T03:50:02.460Z,83.63
2017-03-25T03:50:42.856Z,83.63
2017-03-25T03:51:23.228Z,83.44
2017-03-25T03:52:03.641Z,83.82
2017-03-25T03:52:44.076Z,83.82
2017-03-25T03:53:25.125Z,83.53
2017-03-25T03:54:05.536Z,84.01
2017-03-25T03:54:45.908Z,83.72
2017-03-25T03:55:27.256Z,83.72
2017-03-25T03:56:07.667Z,84.2
2017-03-25T03:56:48.621Z,84.01
2017-03-25T03:57:29.079Z,83.91
2017-03-25T03:58:09.470Z,83.72
2017-03-25T03:58:49.833Z,83.72
2017-03-25T03:59:31.162Z,83.72
2017-03-25T04:00:11.581Z,83.82
2017-03-25T04:00:52.064Z,84.1
2017-03-25T04:01:32.461Z,84.1
2017-03-25T04:02:13.725Z,84.01
2017-03-25T04:02:54.195Z,83.72
2017-03-25T04:03:35.429Z,83.72
2017-03-25T04:04:15.834Z,84.2
2017-03-25T04:04:56.258Z,84.29
2017-03-25T04:05:37.468Z,83.72
2017-03-25T04:06:17.924Z,83.91
2017-03-25T04:06:59.742Z,84.01
2017-03-25T04:07:41.065Z,84.1
2017-03-25T04:08:21.433Z,84.01
2017-03-25T04:09:01.868Z,84.1
2017-03-25T04:09:43.231Z,83.91
2017-03-25T04:10:23.678Z,83.82
2017-03-25T04:11:04.064Z,83.91
2017-03-25T04:11:44.443Z,83.91
2017-03-25T04:12:24.849Z,83.72
2017-03-25T04:13:05.994Z,83.91
2017-03-25T04:13:46.409Z,83.91
2017-03-25T04:14:26.798Z,84.1
2017-03-25T04:15:07.232Z,83.72
2017-03-25T04:15:47.596Z,84.29
2017-03-25T04:16:28.264Z,83.82
2017-03-25T04:17:09.330Z,84.2
2017-03-25T04:17:50.550Z,83.63
2017-03-25T04:18:30.934Z,83.82
2017-03-25T04:19:11.358Z,84.1
2017-03-25T04:19:51.834Z,84.29
2017-03-25T04:20:33.160Z,84.1
2017-03-25T04:21:16.116Z,83.63
2017-03-25T04:21:57.433Z,84.1
2017-03-25T04:22:38.300Z,84.48
2017-03-25T04:23:18.824Z,84.39
2017-03-25T04:24:00.130Z,84.48
2017-03-25T04:24:41.302Z,84.29
2017-03-25T04:25:22.638Z,84.2
2017-03-25T04:26:03.030Z,84.58
2017-03-25T04:26:44.926Z,84.29
2017-03-25T04:27:25.308Z,84.39
2017-03-25T04:28:06.370Z,84.29
2017-03-25T04:28:46.732Z,84.2
2017-03-25T04:29:27.265Z,84.67
2017-03-25T04:30:07.633Z,84.39
2017-03-25T04:30:48.065Z,84.58
2017-03-25T04:31:28.490Z,84.58
2017-03-25T04:32:10.111Z,84.48
2017-03-25T04:32:50.547Z,84.58
2017-03-25T04:33:31.810Z,84.67
2017-03-25T04:34:12.205Z,84.58
2017-03-25T04:34:52.645Z,84.1
2017-03-25T04:35:33.055Z,84.29
2017-03-25T04:36:14.641Z,84.39
2017-03-25T04:36:58.279Z,84.39
2017-03-25T04:37:47.248Z,84.39
2017-03-25T04:38:27.181Z,84.48
2017-03-25T04:39:08.176Z,84.48
2017-03-25T04:39:49.228Z,84.48
2017-03-25T04:40:30.298Z,84.01
2017-03-25T04:41:11.665Z,84.1
2017-03-25T04:41:53.006Z,84.2
2017-03-25T04:42:33.972Z,84.29
2017-03-25T04:43:14.327Z,84.1
2017-03-25T04:43:54.691Z,84.48
2017-03-25T04:44:35.932Z,83.91
2017-03-25T04:45:17.309Z,84.39
2017-03-25T04:45:58.276Z,84.58
2017-03-25T04:46:39.432Z,84.48
2017-03-25T04:47:19.821Z,84.29
2017-03-25T04:48:00.212Z,84.58
2017-03-25T04:48:40.657Z,84.67
2017-03-25T04:49:21.053Z,84.67
2017-03-25T04:50:01.407Z,84.48
2017-03-25T04:50:41.889Z,84.77
2017-03-25T04:51:22.334Z,84.95
2017-03-25T04:52:03.048Z,84.77
2017-03-25T04:52:43.424Z,84.77
2017-03-25T04:53:23.850Z,84.77
2017-03-25T04:54:04.246Z,84.29
2017-03-25T04:54:44.645Z,84.29
2017-03-25T04:55:25.073Z,84.48
2017-03-25T04:56:06.288Z,84.58
2017-03-25T04:56:46.731Z,84.58
2017-03-25T04:57:27.170Z,84.39
2017-03-25T04:58:07.601Z,84.29
2017-03-25T04:58:48.038Z,84.39
2017-03-25T04:59:28.462Z,84.58
2017-03-25T05:00:08.915Z,84.67
2017-03-25T05:00:49.291Z,84.58
2017-03-25T05:01:29.689Z,84.86
2017-03-25T05:02:10.172Z,85.14
2017-03-25T05:02:50.529Z,85.14
2017-03-25T05:03:30.971Z,85.05
2017-03-25T05:04:11.370Z,85.24
2017-03-25T05:04:51.732Z,85.24
2017-03-25T05:05:32.173Z,85.14
2017-03-25T05:06:12.574Z,85.14
2017-03-25T05:06:53.003Z,84.95
2017-03-25T05:07:33.395Z,84.95
2017-03-25T05:08:14.648Z,85.24
2017-03-25T05:08:55.085Z,85.33
2017-03-25T05:09:35.513Z,85.24
2017-03-25T05:10:15.872Z,85.42
2017-03-25T05:10:56.312Z,84.58
2017-03-25T05:11:36.742Z,85.33
2017-03-25T05:12:17.153Z,85.24
2017-03-25T05:12:57.502Z,85.24
2017-03-25T05:13:37.920Z,84.95
2017-03-25T05:14:18.347Z,85.33
2017-03-25T05:14:58.739Z,85.42
2017-03-25T05:15:39.151Z,85.24
2017-03-25T05:16:19.595Z,85.61
2017-03-25T05:16:59.982Z,84.77
2017-03-25T05:17:40.401Z,85.24
2017-03-25T05:18:20.751Z,84.86
2017-03-25T05:19:01.194Z,85.05
2017-03-25T05:19:41.576Z,85.14
2017-03-25T05:20:21.988Z,84.95
2017-03-25T05:21:02.389Z,84.77
2017-03-25T05:21:42.814Z,84.67
2017-03-25T05:22:23.188Z,84.67
2017-03-25T05:23:03.585Z,84.95
2017-03-25T05:23:43.966Z,84.86
2017-03-25T05:24:24.422Z,84.86
2017-03-25T05:25:04.791Z,85.24
2017-03-25T05:25:45.252Z,85.24
2017-03-25T05:26:25.604Z,84.67
2017-03-25T05:27:06.046Z,85.42
2017-03-25T05:27:46.441Z,85.33
2017-03-25T05:28:26.839Z,85.52
2017-03-25T05:29:07.254Z,85.38
2017-03-25T05:29:47.655Z,85.42
2017-03-25T05:30:28.031Z,85.52
2017-03-25T05:31:08.445Z,85.47
2017-03-25T05:31:48.846Z,85.42
2017-03-25T05:32:29.233Z,85.42
2017-03-25T05:33:09.669Z,85.33
2017-03-25T05:33:50.072Z,85.52
2017-03-25T05:34:30.493Z,85.42
2017-03-25T05:35:10.874Z,85.24
2017-03-25T05:35:51.292Z,85.42
2017-03-25T05:36:31.735Z,85.52
2017-03-25T05:37:12.143Z,85.42
2017-03-25T05:37:52.532Z,85.52
2017-03-25T05:38:32.884Z,85.42
2017-03-25T05:39:13.667Z,85.61
2017-03-25T05:39:54.043Z,85.33
2017-03-25T05:40:34.420Z,85.42
2017-03-25T05:41:15.760Z,85.42
2017-03-25T05:41:56.147Z,85.24
2017-03-25T05:42:36.607Z,85.33
2017-03-25T05:43:16.973Z,85.33
2017-03-25T05:43:57.375Z,85.42
2017-03-25T05:44:37.746Z,85.52
2017-03-25T05:45:18.164Z,85.42
2017-03-25T05:45:58.557Z,85.52
2017-03-25T05:46:38.980Z,85.42
2017-03-25T05:47:19.333Z,85.42
2017-03-25T05:47:59.811Z,85.14
2017-03-25T05:48:40.269Z,85.52
2017-03-25T05:49:20.642Z,85.9
2017-03-25T05:50:01.013Z,85.99
2017-03-25T05:50:41.438Z,85.71
2017-03-25T05:51:21.857Z,85.9
2017-03-25T05:52:02.250Z,85.9
2017-03-25T05:52:42.613Z,85.71
2017-03-25T05:53:23.044Z,85.8
2017-03-25T05:54:03.445Z,85.61
2017-03-25T05:54:43.843Z,85.9
2017-03-25T05:55:24.223Z,85.8
2017-03-25T05:56:04.671Z,85.42
2017-03-25T05:56:45.035Z,85.9
2017-03-25T05:57:25.486Z,86.09
2017-03-25T05:58:05.903Z,85.9
2017-03-25T05:58:46.262Z,85.8
2017-03-25T05:59:26.697Z,86.47
2017-03-25T06:00:07.086Z,86.28
2017-03-25T06:00:47.531Z,85.71
2017-03-25T06:01:27.923Z,86.09
2017-03-25T06:02:08.357Z,85.8
2017-03-25T06:02:48.740Z,85.61
2017-03-25T06:03:29.152Z,85.99
2017-03-25T06:04:09.566Z,85.8
2017-03-25T06:04:49.967Z,85.61
2017-03-25T06:05:30.425Z,86.09
2017-03-25T06:06:10.800Z,86.47
2017-03-25T06:06:51.198Z,86.18
2017-03-25T06:07:31.644Z,86.18
2017-03-25T06:08:12.041Z,86.22
2017-03-25T06:08:52.401Z,85.66
2017-03-25T06:09:32.863Z,85.66
2017-03-25T06:10:15.675Z,86.22
2017-03-25T06:11:01.831Z,86.22
2017-03-25T06:11:42.247Z,86.04
2017-03-25T06:12:22.612Z,86.22
2017-03-25T06:13:03.003Z,85.85
2017-03-25T06:13:43.440Z,85.94
2017-03-25T06:14:23.898Z,86.13
2017-03-25T06:15:04.285Z,86.22
2017-03-25T06:15:44.710Z,86.13
2017-03-25T06:16:25.153Z,86.13
2017-03-25T06:17:05.462Z,86.13
2017-03-25T06:17:45.935Z,86.08
2017-03-25T06:18:26.337Z,86.18
2017-03-25T06:19:06.744Z,86.08
2017-03-25T06:19:47.140Z,85.7
2017-03-25T06:20:27.531Z,86.18
2017-03-25T06:21:07.940Z,85.99
2017-03-25T06:21:48.364Z,85.99
2017-03-25T06:22:28.734Z,85.51
2017-03-25T06:23:09.118Z,85.51
2017-03-25T06:23:49.561Z,85.61
2017-03-25T06:24:29.978Z,85.61
2017-03-25T06:25:10.386Z,85.61
2017-03-25T06:25:50.765Z,85.55
2017-03-25T06:26:31.196Z,85.46
2017-03-25T06:27:11.596Z,85.55
2017-03-25T06:27:51.977Z,85.93
2017-03-25T06:28:32.393Z,85.46
2017-03-25T06:29:12.804Z,85.36
2017-03-25T06:29:53.238Z,85.27
2017-03-25T06:30:35.264Z,85.55
2017-03-25T06:31:18.336Z,85.08
2017-03-25T06:32:02.155Z,85.74
2017-03-25T06:32:46.295Z,85.27
2017-03-25T06:33:27.567Z,85.27
2017-03-25T06:34:08.848Z,85.41
2017-03-25T06:34:50.616Z,85.41
2017-03-25T06:35:31.620Z,85.22
2017-03-25T06:36:12.991Z,85.22
2017-03-25T06:36:53.871Z,85.41
2017-03-25T06:37:34.891Z,85.41
2017-03-25T06:38:18.206Z,85.31
2017-03-25T06:39:01.181Z,85.03
2017-03-25T06:39:41.625Z,85.03
2017-03-25T06:40:23.948Z,84.74
2017-03-25T06:41:04.399Z,85.13
2017-03-25T06:41:45.514Z,84.31
2017-03-25T06:42:26.439Z,84.69
2017-03-25T06:43:09.409Z,84.69
2017-03-25T06:43:49.828Z,84.5
2017-03-25T06:44:30.809Z,84.98
2017-03-25T06:45:11.226Z,84.69
2017-03-25T06:45:51.686Z,84.22
2017-03-25T06:46:32.683Z,84.69
2017-03-25T06:47:13.139Z,84.31
2017-03-25T06:47:55.144Z,84.55
2017-03-25T06:48:36.386Z,84.74
2017-03-25T06:49:16.898Z,84.17
2017-03-25T06:50:02.175Z,84.07
2017-03-25T06:50:44.281Z,84.45
2017-03-25T06:51:24.725Z,84.17
2017-03-25T06:52:05.176Z,83.78
2017-03-25T06:52:46.491Z,83.97
2017-03-25T06:53:26.991Z,83.97
2017-03-25T06:54:08.759Z,83.97
2017-03-25T06:54:49.896Z,83.83
2017-03-25T06:55:31.712Z,84.21
2017-03-25T06:56:13.997Z,83.16
2017-03-25T06:56:56.315Z,83.36
2017-03-25T06:57:36.742Z,83.45
2017-03-25T06:58:17.140Z,83.45
2017-03-25T06:58:57.624Z,83.36
2017-03-25T06:59:38.770Z,83.36
2017-03-25T07:00:19.200Z,83.36
2017-03-25T07:01:02.302Z,83.45
2017-03-25T07:01:43.590Z,82.97
2017-03-25T07:02:24.047Z,82.97
2017-03-25T07:03:05.874Z,82.4
2017-03-25T07:03:46.403Z,82.5
2017-03-25T07:04:28.330Z,82.64
2017-03-25T07:05:11.364Z,82.82
2017-03-25T07:05:51.740Z,83.01
2017-03-25T07:06:33.763Z,82.07
2017-03-25T07:07:19.661Z,82.26
2017-03-25T07:08:01.849Z,82.26
2017-03-25T07:08:42.869Z,82.45
2017-03-25T07:09:25.850Z,82.45
2017-03-25T07:10:08.051Z,82.07
2017-03-25T07:10:55.765Z,82.26
2017-03-25T07:13:10.387Z,82.07
2017-03-25T07:13:52.583Z,82.01
2017-03-25T07:14:32.970Z,82.1
2017-03-25T07:15:15.136Z,82.29
2017-03-25T07:15:58.387Z,82.01
2017-03-25T07:16:41.330Z,81.63
2017-03-25T07:17:24.075Z,81.82
2017-03-25T07:18:07.464Z,82.1
2017-03-25T07:18:48.790Z,81.63
2017-03-25T07:19:30.749Z,81.35
2017-03-25T07:20:11.211Z,81.35
2017-03-25T07:20:55.074Z,81.48
2017-03-25T07:21:36.186Z,81.2
2017-03-25T07:22:17.066Z,80.82
2017-03-25T07:22:58.426Z,81.1
2017-03-25T07:23:38.828Z,81.1
2017-03-25T07:24:20.085Z,80.72
2017-03-25T07:25:00.532Z,81.01
2017-03-25T07:25:41.852Z,80.63
2017-03-25T07:26:23.703Z,80.53
2017-03-25T07:27:04.095Z,80.1
2017-03-25T07:27:44.537Z,80.29
2017-03-25T07:28:25.042Z,79.52
2017-03-25T07:29:06.428Z,79.43
2017-03-25T07:29:46.983Z,79.62
2017-03-25T07:30:27.282Z,79.72
2017-03-25T07:31:12.097Z,79.81
2017-03-25T07:31:54.492Z,79.24
2017-03-25T07:32:35.608Z,79.57
2017-03-25T07:33:16.640Z,79.28
2017-03-25T07:33:57.700Z,78.61
2017-03-25T07:34:38.076Z,78.33
2017-03-25T07:35:20.110Z,78.23
2017-03-25T07:36:03.072Z,78.52
2017-03-25T07:36:43.485Z,78.04
2017-03-25T07:37:23.905Z,78.04
2017-03-25T07:38:04.299Z,77.76
2017-03-25T07:38:45.264Z,77.76
2017-03-25T07:39:26.379Z,78.04
2017-03-25T07:40:06.814Z,77.85
2017-03-25T07:40:47.911Z,77.95
2017-03-25T07:41:30.997Z,77.66
2017-03-25T07:42:12.318Z,77.32
2017-03-25T07:42:55.187Z,77.51
2017-03-25T07:43:36.734Z,77.42
2017-03-25T07:44:17.161Z,76.84
2017-03-25T07:46:30.775Z,76.12
2017-03-25T07:47:14.633Z,75.84
2017-03-25T07:47:55.755Z,75.55
2017-03-25T07:48:39.691Z,75.36
2017-03-25T07:49:20.002Z,75.64
2017-03-25T07:50:00.405Z,75.11
2017-03-25T07:50:42.657Z,75.2
2017-03-25T07:51:23.062Z,75.11
2017-03-25T07:52:03.572Z,74.54
2017-03-25T07:52:43.988Z,74.54
2017-03-25T07:53:24.399Z,74.86
2017-03-25T07:54:07.179Z,74.48
2017-03-25T07:54:48.559Z,74.1
2017-03-25T07:55:29.605Z,74.01
2017-03-25T07:56:10.746Z,74.1
2017-03-25T07:56:52.575Z,73.56
2017-03-25T07:57:32.928Z,72.51
2017-03-25T07:58:14.350Z,72.8
2017-03-25T07:58:55.012Z,72.03
2017-03-25T07:59:36.149Z,71.75
2017-03-25T08:00:16.540Z,71.27
2017-03-25T08:01:00.545Z,70.79
2017-03-25T08:03:15.376Z,70.7
2017-03-25T08:05:03.647Z,70.26
2017-03-25T08:05:46.620Z,70.54
2017-03-25T08:06:29.408Z,69.68
2017-03-25T08:10:16.032Z,68.48
2017-03-25T08:12:29.561Z,67.71
2017-03-25T08:15:00.148Z,69.7
2017-03-25T08:16:50.603Z,71.87
2017-03-25T08:19:22.456Z,69.01
2017-03-25T08:20:03.395Z,66.93
2017-03-25T08:20:43.798Z,65.46
2017-03-25T08:21:24.236Z,63.7
2017-03-25T08:23:38.294Z,56.69
2017-03-25T08:24:23.824Z,55.98
2017-03-25T08:25:04.291Z,54.84
2017-03-25T08:25:44.640Z,52.45
2017-03-25T08:26:25.047Z,49.87
2017-03-25T08:27:05.442Z,46.7
2017-03-25T08:27:45.897Z,45.18
2017-03-25T08:28:26.376Z,43.95
2017-03-25T08:29:06.757Z,40.65
2017-03-25T08:29:47.195Z,39.59
2017-03-25T08:30:27.575Z,39.8
2017-03-25T08:31:07.983Z,40.4
2017-03-25T08:31:48.405Z,40.71
2017-03-25T08:32:28.830Z,39.65
2017-03-25T08:33:09.967Z,38.21
2017-03-25T08:33:50.564Z,36.87
2017-03-25T08:34:30.876Z,36.19
2017-03-25T08:35:12.301Z,36.48
2017-03-25T08:35:52.958Z,36.89
2017-03-25T08:36:33.411Z,36.5
2017-03-25T08:37:14.573Z,35.82
2017-03-25T08:37:57.420Z,36.11
2017-03-25T08:38:37.628Z,36.3
2017-03-25T08:39:18.120Z,36.61
2017-03-25T08:40:00.090Z,36.42
2017-03-25T08:40:40.556Z,36.22
2017-03-25T08:41:21.006Z,36.22
2017-03-25T08:42:01.441Z,35.74
2017-03-25T08:42:41.844Z,35.94
2017-03-25T08:43:22.300Z,35.53
2017-03-25T08:44:02.719Z,35.06
2017-03-25T08:44:44.019Z,35.35
2017-03-25T08:45:24.493Z,34.58
2017-03-25T08:46:04.928Z,33.33
2017-03-25T08:46:45.363Z,31.48
2017-03-25T08:47:25.791Z,31.68
2017-03-25T08:48:06.229Z,30.33
2017-03-25T08:48:47.218Z,27.11
2017-03-25T08:49:28.620Z,26.62
2017-03-25T08:50:10.938Z,27.12
2017-03-25T08:50:51.371Z,27.03
2017-03-25T08:51:31.806Z,26.75
2017-03-25T08:52:12.215Z,25.87
2017-03-25T08:52:52.701Z,25.1
2017-03-25T08:53:33.197Z,24.33
2017-03-25T08:54:13.608Z,24.62
2017-03-25T08:54:54.094Z,24.82
2017-03-25T08:55:34.473Z,24.91
2017-03-25T08:56:14.943Z,25.01
2017-03-25T08:56:55.380Z,25.58
2017-03-25T08:57:35.787Z,26.07
2017-03-25T08:58:16.643Z,24.8
2017-03-25T08:58:57.295Z,25.29
2017-03-25T08:59:37.686Z,25.19
2017-03-25T09:00:18.898Z,25.58
2017-03-25T09:01:00.094Z,25.68
2017-03-25T09:01:41.312Z,25.1
2017-03-25T09:02:21.743Z,24.62
2017-03-25T09:03:03.111Z,23.45
2017-03-25T09:03:43.530Z,22.96
2017-03-25T09:04:23.940Z,22.76
2017-03-25T09:05:04.396Z,22.94
2017-03-25T09:05:44.811Z,23.62
2017-03-25T09:06:25.217Z,24.5
2017-03-25T09:07:05.671Z,24.69